sensor_id;sensor_type;location;lat;lon;timestamp;P1;durP1;ratioP1;P2;durP2;ratioP2
62106;SDS011;48087;32.600;-97.100;2022-07-18T00:00:50;40;;;18;;
62106;SDS011;48087;32.600;-97.100;2022-07-18T00:23:22;38;;;17;;
62106;SDS011;48087;32.600;-97.100;2022-07-18T00:45:54;39;;;18;;
62106;SDS011;48087;32.600;-97.100;2022-07-18T01:08:26;38;;;18;;
62106;SDS011;48087;32.600;-97.100;2022-07-18T01:30:56;41;;;18;;
62106;SDS011;48087;32.600;-97.100;2022-07-18T01:53:27;41;;;18;;
62106;SDS011;48087;32.600;-97.100;2022-07-18T02:15:57;40;;;18;;
62106;SDS011;48087;32.600;-97.100;2022-07-18T02:38:26;39;;;17;;
62106;SDS011;48087;32.600;-97.100;2022-07-18T03:00:55;40;;;18;;
62106;SDS011;48087;32.600;-97.100;2022-07-18T03:23:23;41;;;18;;
62106;SDS011;48087;32.600;-97.100;2022-07-18T03:45:51;38;;;18;;
62106;SDS011;48087;32.600;-97.100;2022-07-18T03:47:00;37;;;18;;
62106;SDS011;48087;32.600;-97.100;2022-07-18T04:09:28;38;;;18;;
62106;SDS011;48087;32.600;-97.100;2022-07-18T04:31:56;38;;;18;;
62106;SDS011;48087;32.600;-97.100;2022-07-18T04:54:23;42;;;19;;
62106;SDS011;48087;32.600;-97.100;2022-07-18T05:16:49;41;;;20;;
62106;SDS011;48087;32.600;-97.100;2022-07-18T05:39:16;39;;;19;;
62106;SDS011;48087;32.600;-97.100;2022-07-18T06:01:42;38;;;18;;
62106;SDS011;48087;32.600;-97.100;2022-07-18T06:02:51;39;;;18;;
62106;SDS011;48087;32.600;-97.100;2022-07-18T06:25:17;38;;;18;;
62106;SDS011;48087;32.600;-97.100;2022-07-18T06:47:43;43;;;20;;
62106;SDS011;48087;32.600;-97.100;2022-07-18T07:10:08;40;;;18;;
62106;SDS011;48087;32.600;-97.100;2022-07-18T07:32:34;43;;;20;;
62106;SDS011;48087;32.600;-97.100;2022-07-18T07:55:00;44;;;20;;
62106;SDS011;48087;32.600;-97.100;2022-07-18T08:17:26;43;;;19;;
62106;SDS011;48087;32.600;-97.100;2022-07-18T08:39:51;44;;;20;;
62106;SDS011;48087;32.600;-97.100;2022-07-18T08:40:59;42;;;20;;
62106;SDS011;48087;32.600;-97.100;2022-07-18T09:25:50;42;;;20;;
62106;SDS011;48087;32.600;-97.100;2022-07-18T09:48:15;43;;;21;;
62106;SDS011;48087;32.600;-97.100;2022-07-18T09:49:28;41;;;20;;
62106;SDS011;48087;32.600;-97.100;2022-07-18T10:11:49;44;;;20;;
62106;SDS011;48087;32.600;-97.100;2022-07-18T10:34:13;45;;;21;;
62106;SDS011;48087;32.600;-97.100;2022-07-18T11:19:19;42;;;21;;
62106;SDS011;48087;32.600;-97.100;2022-07-18T11:41:27;41;;;20;;
62106;SDS011;48087;32.600;-97.100;2022-07-18T11:42:37;39;;;19;;
62106;SDS011;48087;32.600;-97.100;2022-07-18T12:05:01;44;;;21;;
62106;SDS011;48087;32.600;-97.100;2022-07-18T12:27:33;44;;;21;;
62106;SDS011;48087;32.600;-97.100;2022-07-18T12:49:51;44;;;21;;
62106;SDS011;48087;32.600;-97.100;2022-07-18T13:12:17;42;;;20;;
62106;SDS011;48087;32.600;-97.100;2022-07-18T13:34:42;43;;;20;;
62106;SDS011;48087;32.600;-97.100;2022-07-18T13:57:07;43;;;20;;
62106;SDS011;48087;32.600;-97.100;2022-07-18T13:58:16;41;;;20;;
62106;SDS011;48087;32.600;-97.100;2022-07-18T14:20:43;40;;;18;;
62106;SDS011;48087;32.600;-97.100;2022-07-18T14:43:12;45;;;20;;
62106;SDS011;48087;32.600;-97.100;2022-07-18T14:44:21;44;;;20;;
62106;SDS011;48087;32.600;-97.100;2022-07-18T15:29:23;42;;;19;;
62106;SDS011;48087;32.600;-97.100;2022-07-18T15:51:56;50;;;21;;
62106;SDS011;48087;32.600;-97.100;2022-07-18T16:14:28;45;;;19;;
62106;SDS011;48087;32.600;-97.100;2022-07-18T16:37:02;45;;;20;;
62106;SDS011;48087;32.600;-97.100;2022-07-18T16:38:11;45;;;20;;
62106;SDS011;48087;32.600;-97.100;2022-07-18T17:00:45;44;;;19;;
62106;SDS011;48087;32.600;-97.100;2022-07-18T17:23:20;43;;;19;;
62106;SDS011;48087;32.600;-97.100;2022-07-18T17:24:29;41;;;18;;
62106;SDS011;48087;32.600;-97.100;2022-07-18T17:47:04;47;;;20;;
62106;SDS011;48087;32.600;-97.100;2022-07-18T18:09:39;45;;;19;;
62106;SDS011;48087;32.600;-97.100;2022-07-18T18:32:14;42;;;18;;
62106;SDS011;48087;32.600;-97.100;2022-07-18T18:54:49;52;;;20;;
62106;SDS011;48087;32.600;-97.100;2022-07-18T19:17:25;53;;;20;;
62106;SDS011;48087;32.600;-97.100;2022-07-18T19:40:02;52;;;20;;
62106;SDS011;48087;32.600;-97.100;2022-07-18T19:41:10;47;;;19;;
62106;SDS011;48087;32.600;-97.100;2022-07-18T20:03:46;47;;;19;;
62106;SDS011;48087;32.600;-97.100;2022-07-18T20:26:22;45;;;20;;
62106;SDS011;48087;32.600;-97.100;2022-07-18T20:48:58;47;;;19;;
62106;SDS011;48087;32.600;-97.100;2022-07-18T21:11:35;43;;;18;;
62106;SDS011;48087;32.600;-97.100;2022-07-18T21:12:43;45;;;19;;
62106;SDS011;48087;32.600;-97.100;2022-07-18T21:35:19;42;;;18;;
62106;SDS011;48087;32.600;-97.100;2022-07-18T21:57:55;41;;;17;;
62106;SDS011;48087;32.600;-97.100;2022-07-18T22:20:30;41;;;17;;
62106;SDS011;48087;32.600;-97.100;2022-07-18T22:43:05;44;;;19;;
62106;SDS011;48087;32.600;-97.100;2022-07-18T23:05:40;47;;;20;;
62106;SDS011;48087;32.600;-97.100;2022-07-18T23:06:48;45;;;20;;
62106;SDS011;48087;32.600;-97.100;2022-07-18T23:29:23;42;;;18;;
62106;SDS011;48087;32.600;-97.100;2022-07-18T23:51:57;41;;;18;;
